createdAt,value
2022-12-08T00:00:17.620Z,-1.54
2022-12-08T00:01:23.454Z,-1.54
2022-12-08T00:02:26.995Z,-1.54
2022-12-08T00:03:30.604Z,-1.53
2022-12-08T00:04:35.638Z,-1.53
2022-12-08T00:05:57.133Z,-1.53
2022-12-08T00:07:18.496Z,-1.52
2022-12-08T00:08:40.203Z,-1.51
2022-12-08T00:09:43.328Z,-1.52
2022-12-08T00:10:49.746Z,-1.52
2022-12-08T00:12:01.175Z,-1.55
2022-12-08T00:13:04.471Z,-1.57
2022-12-08T00:14:07.740Z,-1.60
2022-12-08T00:15:10.915Z,-1.59
2022-12-08T00:16:14.789Z,-1.59
2022-12-08T00:17:18.029Z,-1.59
2022-12-08T00:18:21.222Z,-1.57
2022-12-08T00:19:24.619Z,-1.56
2022-12-08T00:20:27.802Z,-1.57
2022-12-08T00:21:30.859Z,-1.56
2022-12-08T00:22:33.969Z,-1.57
2022-12-08T00:23:37.035Z,-1.57
2022-12-08T00:24:41.651Z,-1.56
2022-12-08T00:25:44.783Z,-1.56
2022-12-08T00:26:48.259Z,-1.56
2022-12-08T00:27:51.947Z,-1.56
2022-12-08T00:28:55.125Z,-1.56
2022-12-08T00:29:58.365Z,-1.57
2022-12-08T00:31:10.157Z,-1.56
2022-12-08T00:32:13.366Z,-1.56
2022-12-08T00:33:16.560Z,-1.56
2022-12-08T00:34:20.231Z,-1.57
2022-12-08T00:35:23.296Z,-1.58
2022-12-08T00:36:26.918Z,-1.58
2022-12-08T00:37:30.210Z,-1.59
2022-12-08T00:38:33.690Z,-1.61
2022-12-08T00:39:36.880Z,-1.63
2022-12-08T00:40:45.744Z,-1.65
2022-12-08T00:42:07.298Z,-1.67
2022-12-08T00:43:10.689Z,-1.71
2022-12-08T00:44:15.878Z,-1.75
2022-12-08T00:45:19.527Z,-1.78
2022-12-08T00:46:22.858Z,-1.80
2022-12-08T00:47:26.050Z,-1.79
2022-12-08T00:48:29.240Z,-1.79
2022-12-08T00:49:32.399Z,-1.77
2022-12-08T00:50:35.619Z,-1.76
2022-12-08T00:51:38.955Z,-1.74
2022-12-08T00:52:42.202Z,-1.72
2022-12-08T00:53:45.340Z,-1.71
2022-12-08T00:54:48.656Z,-1.71
2022-12-08T00:55:51.966Z,-1.69
2022-12-08T00:56:55.988Z,-1.68
2022-12-08T00:57:59.187Z,-1.66
2022-12-08T00:59:04.863Z,-1.64
2022-12-08T01:00:08.884Z,-1.61
2022-12-08T01:01:13.704Z,-1.61
2022-12-08T01:02:16.933Z,-1.60
2022-12-08T01:03:20.198Z,-1.60
2022-12-08T01:04:23.351Z,-1.59
2022-12-08T01:05:26.638Z,-1.61
2022-12-08T01:06:29.830Z,-1.61
2022-12-08T01:07:33.132Z,-1.59
2022-12-08T01:08:37.549Z,-1.60
2022-12-08T01:09:40.793Z,-1.59
2022-12-08T01:10:44.194Z,-1.60
2022-12-08T01:11:47.303Z,-1.60
2022-12-08T01:12:50.628Z,-1.60
2022-12-08T01:13:54.206Z,-1.64
2022-12-08T01:15:02.091Z,-1.64
2022-12-08T01:16:02.568Z,-1.64
2022-12-08T01:17:05.976Z,-1.65
2022-12-08T01:18:09.359Z,-1.66
2022-12-08T01:19:15.095Z,-1.67
2022-12-08T01:20:18.328Z,-1.69
2022-12-08T01:21:21.504Z,-1.71
2022-12-08T01:22:24.879Z,-1.71
2022-12-08T01:23:28.179Z,-1.70
2022-12-08T01:24:31.871Z,-1.68
2022-12-08T01:25:35.146Z,-1.65
2022-12-08T01:26:38.320Z,-1.64
2022-12-08T01:27:41.437Z,-1.64
2022-12-08T01:28:46.854Z,-1.63
2022-12-08T01:29:49.954Z,-1.60
2022-12-08T01:30:53.172Z,-1.60
2022-12-08T01:31:56.458Z,-1.57
2022-12-08T01:32:59.611Z,-1.54
2022-12-08T01:34:02.678Z,-1.52
2022-12-08T01:35:06.115Z,-1.48
2022-12-08T01:36:12.074Z,-1.44
2022-12-08T01:37:15.194Z,-1.42
2022-12-08T01:38:18.592Z,-1.39
2022-12-08T01:39:21.801Z,-1.36
2022-12-08T01:40:24.975Z,-1.33
2022-12-08T01:41:31.252Z,-1.30
2022-12-08T01:42:34.461Z,-1.29
2022-12-08T01:43:59.436Z,-1.28
2022-12-08T01:45:05.645Z,-1.26
2022-12-08T01:46:08.950Z,-1.28
2022-12-08T01:47:12.245Z,-1.30
2022-12-08T01:48:19.003Z,-1.29
2022-12-08T01:49:28.535Z,-1.31
2022-12-08T01:50:32.332Z,-1.29
2022-12-08T01:51:57.014Z,-1.31
2022-12-08T01:53:03.678Z,-1.30
2022-12-08T01:54:07.663Z,-1.31
2022-12-08T01:55:14.278Z,-1.30
2022-12-08T01:56:39.271Z,-1.31
2022-12-08T01:57:51.389Z,-1.31
2022-12-08T01:58:56.176Z,-1.33
2022-12-08T02:00:10.597Z,-1.34
2022-12-08T02:01:14.172Z,-1.34
2022-12-08T02:02:17.405Z,-1.34
2022-12-08T02:03:24.129Z,-1.33
2022-12-08T02:04:27.247Z,-1.34
2022-12-08T02:05:33.869Z,-1.35
2022-12-08T02:06:40.125Z,-1.34
2022-12-08T02:07:44.066Z,-1.33
2022-12-08T02:08:49.243Z,-1.31
2022-12-08T02:09:53.786Z,-1.30
2022-12-08T02:10:57.270Z,-1.29
2022-12-08T02:12:00.762Z,-1.28
2022-12-08T02:13:06.358Z,-1.28
2022-12-08T02:14:12.961Z,-1.27
2022-12-08T02:15:16.633Z,-1.27
2022-12-08T02:16:42.857Z,-1.26
2022-12-08T02:18:10.555Z,-1.24
2022-12-08T02:21:10.692Z,-1.17
2022-12-08T02:22:26.384Z,-1.31
2022-12-08T02:23:54.007Z,-1.31
2022-12-08T02:25:00.713Z,-1.32
2022-12-08T02:26:07.360Z,-1.31
2022-12-08T02:27:48.561Z,-1.30
2022-12-08T02:29:07.151Z,-1.32
2022-12-08T02:30:16.897Z,-1.30
2022-12-08T02:31:23.682Z,-1.30
2022-12-08T02:32:52.908Z,-1.30
2022-12-08T02:34:02.518Z,-1.29
2022-12-08T02:35:27.995Z,-1.30
2022-12-08T02:36:40.829Z,-1.30
2022-12-08T02:37:50.332Z,-1.31
2022-12-08T02:39:18.017Z,-1.31
2022-12-08T02:40:30.647Z,-1.32
2022-12-08T02:41:40.409Z,-1.33
2022-12-08T02:42:53.268Z,-1.34
2022-12-08T02:44:06.197Z,-1.34
2022-12-08T02:45:15.685Z,-1.35
2022-12-08T02:46:31.088Z,-1.35
2022-12-08T02:47:35.024Z,-1.35
2022-12-08T02:48:38.931Z,-1.35
2022-12-08T02:49:42.410Z,-1.35
2022-12-08T02:50:45.702Z,-1.34
2022-12-08T02:51:48.819Z,-1.33
2022-12-08T02:52:52.273Z,-1.34
2022-12-08T02:53:55.644Z,-1.32
2022-12-08T02:55:05.428Z,-1.31
2022-12-08T02:56:31.132Z,-1.29
2022-12-08T02:57:55.891Z,-1.27
2022-12-08T02:59:17.446Z,-1.23
2022-12-08T03:00:23.019Z,-1.23
2022-12-08T03:01:41.826Z,-1.24
2022-12-08T03:03:03.794Z,-1.24
2022-12-08T03:04:28.562Z,-1.22
2022-12-08T03:05:59.360Z,-1.20
2022-12-08T03:07:08.615Z,-1.19
2022-12-08T03:08:24.272Z,-1.16
2022-12-08T03:09:31.139Z,-1.16
2022-12-08T03:10:43.707Z,-1.15
2022-12-08T03:11:59.545Z,-1.16
2022-12-08T03:13:06.403Z,-1.14
2022-12-08T03:14:13.158Z,-1.12
2022-12-08T03:15:20.036Z,-1.11
2022-12-08T03:16:26.673Z,-1.10
2022-12-08T03:17:31.775Z,-1.09
2022-12-08T03:18:38.703Z,-1.09
2022-12-08T03:19:43.690Z,-1.09
2022-12-08T03:20:48.773Z,-1.09
2022-12-08T03:21:56.572Z,-1.09
2022-12-08T03:23:01.722Z,-1.08
2022-12-08T03:24:07.726Z,-1.07
2022-12-08T03:25:14.319Z,-1.06
2022-12-08T03:26:21.229Z,-1.06
2022-12-08T03:27:30.399Z,-1.06
2022-12-08T03:28:33.730Z,-1.05
2022-12-08T03:29:36.919Z,-1.06
2022-12-08T03:30:42.633Z,-1.03
2022-12-08T03:31:49.370Z,-1.00
2022-12-08T03:33:01.951Z,-0.98
2022-12-08T03:34:05.461Z,-0.97
2022-12-08T03:35:15.187Z,-0.95
2022-12-08T03:36:19.390Z,-0.96
2022-12-08T03:37:22.593Z,-0.95
2022-12-08T03:38:25.799Z,-0.95
2022-12-08T03:39:28.978Z,-0.95
2022-12-08T03:40:32.195Z,-0.94
2022-12-08T03:41:35.303Z,-0.94
2022-12-08T03:42:38.433Z,-0.93
2022-12-08T03:43:41.558Z,-0.94
2022-12-08T03:44:44.772Z,-0.95
2022-12-08T03:45:48.066Z,-0.96
2022-12-08T03:46:51.319Z,-0.96
2022-12-08T03:47:54.547Z,-0.98
2022-12-08T03:48:57.774Z,-0.99
2022-12-08T03:50:01.134Z,-0.99
2022-12-08T03:51:04.447Z,-0.99
2022-12-08T03:52:07.668Z,-0.99
2022-12-08T03:53:10.871Z,-0.99
2022-12-08T03:54:14.011Z,-0.98
2022-12-08T03:55:17.891Z,-0.97
2022-12-08T03:56:30.393Z,-0.96
2022-12-08T03:57:33.630Z,-0.96
2022-12-08T03:58:37.694Z,-0.95
2022-12-08T03:59:41.004Z,-0.93
2022-12-08T04:00:44.466Z,-0.93
2022-12-08T04:01:47.687Z,-0.92
2022-12-08T04:02:50.855Z,-0.91
2022-12-08T04:03:54.236Z,-0.89
2022-12-08T04:04:57.381Z,-0.88
2022-12-08T04:06:00.594Z,-0.88
2022-12-08T04:07:03.845Z,-0.88
2022-12-08T04:08:06.970Z,-0.86
2022-12-08T04:09:10.226Z,-0.85
2022-12-08T04:10:13.433Z,-0.83
2022-12-08T04:11:17.544Z,-0.81
2022-12-08T04:12:20.628Z,-0.81
2022-12-08T04:13:23.865Z,-0.78
2022-12-08T04:14:26.970Z,-0.78
2022-12-08T04:15:30.205Z,-0.76
2022-12-08T04:16:33.409Z,-0.74
2022-12-08T04:17:36.681Z,-0.73
2022-12-08T04:18:39.938Z,-0.74
2022-12-08T04:19:43.053Z,-0.74
2022-12-08T04:20:46.536Z,-0.73
2022-12-08T04:21:49.613Z,-0.72
2022-12-08T04:22:52.744Z,-0.71
2022-12-08T04:24:00.880Z,-0.70
2022-12-08T04:25:01.190Z,-0.69
2022-12-08T04:26:04.836Z,-0.69
2022-12-08T04:27:07.901Z,-0.69
2022-12-08T04:28:11.004Z,-0.67
2022-12-08T04:29:14.124Z,-0.65
2022-12-08T04:30:17.329Z,-0.63
2022-12-08T04:31:20.465Z,-0.64
2022-12-08T04:32:23.579Z,-0.63
2022-12-08T04:33:26.971Z,-0.62
2022-12-08T04:34:30.072Z,-0.62
2022-12-08T04:35:33.168Z,-0.61
2022-12-08T04:36:36.244Z,-0.62
2022-12-08T04:37:39.326Z,-0.62
2022-12-08T04:38:42.416Z,-0.62
2022-12-08T04:39:45.538Z,-0.61
2022-12-08T04:40:48.853Z,-0.60
2022-12-08T04:41:52.006Z,-0.59
2022-12-08T04:42:55.403Z,-0.58
2022-12-08T04:43:58.490Z,-0.58
2022-12-08T04:45:01.612Z,-0.58
2022-12-08T04:46:08.767Z,-0.58
2022-12-08T04:47:12.074Z,-0.60
2022-12-08T04:48:15.622Z,-0.61
2022-12-08T04:49:18.839Z,-0.62
2022-12-08T04:50:22.100Z,-0.62
2022-12-08T04:51:26.761Z,-0.63
2022-12-08T04:52:30.131Z,-0.64
2022-12-08T04:53:33.938Z,-0.64
2022-12-08T04:54:37.245Z,-0.66
2022-12-08T04:55:43.341Z,-0.66
2022-12-08T04:56:46.684Z,-0.67
2022-12-08T04:57:50.092Z,-0.66
2022-12-08T04:58:53.412Z,-0.66
2022-12-08T04:59:56.903Z,-0.66
2022-12-08T05:01:00.185Z,-0.67
2022-12-08T05:02:03.558Z,-0.66
2022-12-08T05:03:07.156Z,-0.65
2022-12-08T05:04:10.279Z,-0.66
2022-12-08T05:05:13.498Z,-0.68
2022-12-08T05:06:17.113Z,-0.68
2022-12-08T05:07:20.334Z,-0.68
2022-12-08T05:08:23.678Z,-0.68
2022-12-08T05:09:27.544Z,-0.65
2022-12-08T05:15:16.686Z,-0.69
2022-12-08T05:16:20.006Z,-0.72
2022-12-08T05:17:23.263Z,-0.72
2022-12-08T05:18:26.342Z,-0.71
2022-12-08T05:19:29.541Z,-0.72
2022-12-08T05:20:33.518Z,-0.72
2022-12-08T05:21:36.662Z,-0.72
2022-12-08T05:22:39.780Z,-0.71
2022-12-08T05:23:42.851Z,-0.71
2022-12-08T05:24:47.897Z,-0.68
2022-12-08T05:25:51.031Z,-0.66
2022-12-08T05:26:54.238Z,-0.63
2022-12-08T05:28:17.684Z,-0.62
2022-12-08T05:29:02.310Z,-0.60
2022-12-08T05:30:06.763Z,-0.57
2022-12-08T05:31:12.502Z,-0.55
2022-12-08T05:32:16.458Z,-0.54
2022-12-08T05:33:19.602Z,-0.51
2022-12-08T05:34:22.775Z,-0.50
2022-12-08T05:35:26.059Z,-0.49
2022-12-08T05:36:29.311Z,-0.48
2022-12-08T05:37:32.636Z,-0.46
2022-12-08T05:38:36.042Z,-0.45
2022-12-08T05:39:39.251Z,-0.44
2022-12-08T05:40:42.967Z,-0.44
2022-12-08T05:41:46.284Z,-0.43
2022-12-08T05:42:49.559Z,-0.41
2022-12-08T05:43:52.682Z,-0.39
2022-12-08T05:44:55.839Z,-0.39
2022-12-08T05:45:59.229Z,-0.36
2022-12-08T05:47:02.513Z,-0.37
2022-12-08T05:48:06.131Z,-0.37
2022-12-08T05:49:09.365Z,-0.38
2022-12-08T05:50:12.586Z,-0.38
2022-12-08T05:51:21.720Z,-0.39
2022-12-08T05:52:25.033Z,-0.40
2022-12-08T05:53:28.329Z,-0.38
2022-12-08T05:54:31.533Z,-0.39
2022-12-08T05:55:34.765Z,-0.38
2022-12-08T05:56:38.036Z,-0.38
2022-12-08T05:57:41.241Z,-0.36
2022-12-08T05:58:45.143Z,-0.35
2022-12-08T05:59:48.299Z,-0.32
2022-12-08T06:00:51.504Z,-0.31
2022-12-08T06:01:54.712Z,-0.29
2022-12-08T06:02:58.100Z,-0.27
2022-12-08T06:04:02.908Z,-0.25
2022-12-08T06:05:06.811Z,-0.25
2022-12-08T06:06:10.559Z,-0.25
2022-12-08T06:07:16.154Z,-0.25
2022-12-08T06:08:18.820Z,-0.24
2022-12-08T06:09:22.125Z,-0.22
2022-12-08T06:10:25.478Z,-0.20
2022-12-08T06:11:30.699Z,-0.19
2022-12-08T06:12:34.075Z,-0.17
2022-12-08T06:13:37.225Z,-0.18
2022-12-08T06:14:40.449Z,-0.16
2022-12-08T06:15:43.740Z,-0.15
2022-12-08T06:16:47.205Z,-0.14
2022-12-08T06:17:50.443Z,-0.14
2022-12-08T06:18:54.227Z,-0.14
2022-12-08T06:19:57.471Z,-0.15
2022-12-08T06:21:08.813Z,-0.15
2022-12-08T06:22:12.070Z,-0.17
2022-12-08T06:23:15.212Z,-0.18
2022-12-08T06:24:18.331Z,-0.19
2022-12-08T06:25:22.535Z,-0.19
2022-12-08T06:26:25.873Z,-0.20
2022-12-08T06:27:28.952Z,-0.20
2022-12-08T06:28:32.895Z,-0.20
2022-12-08T06:29:35.973Z,-0.21
2022-12-08T06:30:39.316Z,-0.20
2022-12-08T06:31:42.496Z,-0.20
2022-12-08T06:32:45.629Z,-0.19
2022-12-08T06:33:49.565Z,-0.18
2022-12-08T06:34:52.764Z,-0.16
2022-12-08T06:35:58.138Z,-0.14
2022-12-08T06:37:01.410Z,-0.11
2022-12-08T06:38:04.614Z,-0.11
2022-12-08T06:39:09.463Z,-0.09
2022-12-08T06:40:13.751Z,-0.08
2022-12-08T06:41:17.754Z,-0.07
2022-12-08T06:42:39.331Z,-0.08
2022-12-08T06:43:43.267Z,-0.08
2022-12-08T06:44:46.891Z,-0.08
2022-12-08T06:45:50.952Z,-0.08
2022-12-08T06:46:54.142Z,-0.07
2022-12-08T06:47:57.198Z,-0.07
2022-12-08T06:49:00.399Z,-0.05
2022-12-08T06:50:05.634Z,-0.03
2022-12-08T06:51:15.279Z,-0.02
2022-12-08T06:52:18.541Z,0.01
2022-12-08T06:53:21.732Z,0.03
2022-12-08T06:54:24.940Z,0.05
2022-12-08T06:55:57.943Z,0.06
2022-12-08T06:56:33.457Z,0.07
2022-12-08T06:57:36.799Z,0.09
2022-12-08T06:58:39.877Z,0.10
2022-12-08T06:59:43.161Z,0.11
2022-12-08T07:00:46.630Z,0.11
2022-12-08T07:01:49.941Z,0.12
2022-12-08T07:02:53.391Z,0.11
2022-12-08T07:03:56.606Z,0.14
2022-12-08T07:04:59.769Z,0.15
2022-12-08T07:06:04.355Z,0.16
2022-12-08T07:07:07.835Z,0.19
2022-12-08T07:08:11.027Z,0.20
2022-12-08T07:09:15.021Z,0.21
2022-12-08T07:10:18.598Z,0.24
2022-12-08T07:11:22.842Z,0.25
2022-12-08T07:12:26.209Z,0.26
2022-12-08T07:13:29.441Z,0.28
2022-12-08T07:14:32.699Z,0.30
2022-12-08T07:15:36.084Z,0.31
2022-12-08T07:16:39.704Z,0.31
2022-12-08T07:17:42.933Z,0.32
2022-12-08T07:18:46.291Z,0.33
2022-12-08T07:19:49.492Z,0.34
2022-12-08T07:20:52.942Z,0.35
2022-12-08T07:21:56.164Z,0.34
2022-12-08T07:22:59.470Z,0.34
2022-12-08T07:24:02.733Z,0.33
2022-12-08T07:25:06.677Z,0.33
2022-12-08T07:26:11.394Z,0.34
2022-12-08T07:27:14.746Z,0.34
2022-12-08T07:28:17.946Z,0.34
2022-12-08T07:29:26.038Z,0.35
2022-12-08T07:30:26.516Z,0.37
2022-12-08T07:31:29.852Z,0.37
2022-12-08T07:32:33.142Z,0.37
2022-12-08T07:33:36.437Z,0.38
2022-12-08T07:34:39.649Z,0.37
2022-12-08T07:35:47.765Z,0.37
2022-12-08T07:36:48.011Z,0.38
2022-12-08T07:37:51.252Z,0.39
2022-12-08T07:38:54.494Z,0.40
2022-12-08T07:39:57.779Z,0.41
2022-12-08T07:41:01.009Z,0.41
2022-12-08T07:42:04.237Z,0.42
2022-12-08T07:43:08.204Z,0.43
2022-12-08T07:44:11.464Z,0.43
2022-12-08T07:45:14.665Z,0.44
2022-12-08T07:46:20.595Z,0.44
2022-12-08T07:47:23.985Z,0.45
2022-12-08T07:48:27.570Z,0.46
2022-12-08T07:49:30.784Z,0.47
2022-12-08T07:50:34.260Z,0.48
2022-12-08T07:51:37.309Z,0.47
2022-12-08T07:52:40.455Z,0.47
2022-12-08T07:53:49.872Z,0.46
2022-12-08T07:54:50.236Z,0.46
2022-12-08T07:55:53.519Z,0.45
2022-12-08T07:57:00.418Z,0.46
2022-12-08T07:58:03.568Z,0.45
2022-12-08T07:59:06.689Z,0.46
2022-12-08T08:00:11.321Z,0.47
2022-12-08T08:01:23.628Z,0.48
2022-12-08T08:02:27.109Z,0.49
2022-12-08T08:03:31.001Z,0.51
2022-12-08T08:04:34.187Z,0.53
2022-12-08T08:05:37.551Z,0.53
2022-12-08T08:06:40.960Z,0.52
2022-12-08T08:07:45.938Z,0.50
2022-12-08T08:08:49.244Z,0.49
2022-12-08T08:09:52.329Z,0.50
2022-12-08T08:10:55.402Z,0.49
2022-12-08T08:12:28.984Z,0.49
2022-12-08T08:13:03.524Z,0.49
2022-12-08T08:14:06.858Z,0.49
2022-12-08T08:15:10.262Z,0.50
2022-12-08T08:16:14.575Z,0.50
2022-12-08T08:17:17.964Z,0.51
2022-12-08T08:18:21.215Z,0.53
2022-12-08T08:19:24.351Z,0.54
2022-12-08T08:20:27.623Z,0.54
2022-12-08T08:21:45.409Z,0.56
2022-12-08T08:22:36.430Z,0.54
2022-12-08T08:23:39.917Z,0.57
2022-12-08T08:24:45.059Z,0.55
2022-12-08T08:25:48.202Z,0.57
2022-12-08T08:26:52.980Z,0.58
2022-12-08T08:27:56.194Z,0.59
2022-12-08T08:28:59.301Z,0.61
2022-12-08T08:30:03.881Z,0.63
2022-12-08T08:31:07.570Z,0.65
2022-12-08T08:32:11.260Z,0.67
2022-12-08T08:33:14.463Z,0.70
2022-12-08T08:34:17.777Z,0.72
2022-12-08T08:35:21.027Z,0.73
2022-12-08T08:36:24.304Z,0.75
2022-12-08T08:37:27.939Z,0.78
2022-12-08T08:38:31.202Z,0.79
2022-12-08T08:39:34.513Z,0.79
2022-12-08T08:40:37.959Z,0.79
2022-12-08T08:41:41.253Z,0.80
2022-12-08T08:42:44.484Z,0.81
2022-12-08T08:43:47.686Z,0.81
2022-12-08T08:44:50.858Z,0.82
2022-12-08T08:45:56.685Z,0.82
2022-12-08T08:47:00.037Z,0.82
2022-12-08T08:48:03.475Z,0.82
2022-12-08T08:49:06.987Z,0.82
2022-12-08T08:50:10.289Z,0.81
2022-12-08T08:51:14.737Z,0.81
2022-12-08T08:52:17.992Z,0.83
2022-12-08T08:53:21.357Z,0.84
2022-12-08T08:54:24.627Z,0.84
2022-12-08T08:55:28.089Z,0.87
2022-12-08T08:56:31.592Z,0.88
2022-12-08T08:57:34.802Z,0.90
2022-12-08T08:58:38.000Z,0.92
2022-12-08T08:59:41.208Z,0.94
2022-12-08T09:00:44.772Z,0.96
2022-12-08T09:01:48.324Z,0.97
2022-12-08T09:02:51.639Z,0.99
2022-12-08T09:03:55.313Z,1.01
2022-12-08T09:04:59.220Z,1.03
2022-12-08T09:06:02.548Z,1.04
2022-12-08T09:07:05.820Z,1.05
2022-12-08T09:08:09.199Z,1.06
2022-12-08T09:09:12.554Z,1.05
2022-12-08T09:10:16.012Z,1.07
2022-12-08T09:11:19.324Z,1.08
2022-12-08T09:12:22.570Z,1.07
2022-12-08T09:13:25.762Z,1.09
2022-12-08T09:14:29.006Z,1.10
2022-12-08T09:15:32.227Z,1.11
2022-12-08T09:16:41.808Z,1.12
2022-12-08T09:17:40.555Z,1.13
2022-12-08T09:18:43.811Z,1.13
2022-12-08T09:19:47.099Z,1.12
2022-12-08T09:20:50.581Z,1.12
2022-12-08T09:21:54.328Z,1.12
2022-12-08T09:22:59.569Z,1.11
2022-12-08T09:24:02.983Z,1.11
2022-12-08T09:25:06.266Z,1.10
2022-12-08T09:26:10.286Z,1.09
2022-12-08T09:27:13.495Z,1.09
2022-12-08T09:28:16.773Z,1.07
2022-12-08T09:29:19.962Z,1.10
2022-12-08T09:30:23.494Z,1.10
2022-12-08T09:31:26.832Z,1.10
2022-12-08T09:32:30.030Z,1.11
2022-12-08T09:33:33.154Z,1.12
2022-12-08T09:34:36.585Z,1.12
2022-12-08T09:35:39.792Z,1.12
2022-12-08T09:36:43.299Z,1.13
2022-12-08T09:37:46.491Z,1.15
2022-12-08T09:38:50.500Z,1.16
2022-12-08T09:39:53.582Z,1.18
2022-12-08T09:40:57.406Z,1.20
2022-12-08T09:42:06.287Z,1.20
2022-12-08T09:43:29.281Z,1.21
2022-12-08T09:44:51.336Z,1.22
2022-12-08T09:45:55.544Z,1.22
2022-12-08T09:47:00.090Z,1.22
2022-12-08T09:48:13.676Z,1.22
2022-12-08T09:49:20.538Z,1.22
2022-12-08T09:51:46.246Z,1.35
2022-12-08T09:53:07.939Z,1.26
2022-12-08T09:54:26.827Z,1.29
2022-12-08T09:55:42.465Z,1.31
2022-12-08T09:56:47.827Z,1.32
2022-12-08T09:58:00.847Z,1.33
2022-12-08T09:59:10.225Z,1.34
2022-12-08T10:00:14.646Z,1.34
2022-12-08T10:01:19.267Z,1.37
2022-12-08T10:02:25.910Z,1.37
2022-12-08T10:03:30.744Z,1.38
2022-12-08T10:04:36.999Z,1.39
2022-12-08T10:05:44.065Z,1.40
2022-12-08T10:06:54.006Z,1.41
2022-12-08T10:08:17.051Z,1.43
2022-12-08T10:09:29.655Z,1.43
2022-12-08T10:10:39.084Z,1.44
2022-12-08T10:12:14.498Z,1.43
2022-12-08T10:13:29.528Z,1.43
2022-12-08T10:14:45.491Z,1.43
2022-12-08T10:16:28.017Z,1.42
2022-12-08T10:17:29.945Z,1.41
2022-12-08T10:18:34.452Z,1.40
2022-12-08T10:19:41.186Z,1.41
2022-12-08T10:20:47.560Z,1.40
2022-12-08T10:21:51.089Z,1.42
2022-12-08T10:23:06.910Z,1.42
2022-12-08T10:24:23.015Z,1.43
2022-12-08T10:25:29.902Z,1.42
2022-12-08T10:26:33.088Z,1.43
2022-12-08T10:27:37.183Z,1.43
2022-12-08T10:28:44.793Z,1.44
2022-12-08T10:29:45.904Z,1.46
2022-12-08T10:30:49.108Z,1.47
2022-12-08T10:31:52.357Z,1.46
2022-12-08T10:32:55.711Z,1.47
2022-12-08T10:34:00.941Z,1.47
2022-12-08T10:35:11.503Z,1.48
2022-12-08T10:36:15.000Z,1.48
2022-12-08T10:37:18.106Z,1.48
2022-12-08T10:38:27.651Z,1.48
2022-12-08T10:39:34.475Z,1.49
2022-12-08T10:40:43.855Z,1.50
2022-12-08T10:41:42.980Z,1.52
2022-12-08T10:42:49.742Z,1.54
2022-12-08T10:43:59.723Z,1.55
2022-12-08T10:45:12.389Z,1.56
2022-12-08T10:46:19.125Z,1.57
2022-12-08T10:47:24.961Z,1.59
2022-12-08T10:48:32.880Z,1.60
2022-12-08T10:49:37.878Z,1.61
2022-12-08T10:50:58.198Z,1.62
2022-12-08T10:52:03.442Z,1.61
2022-12-08T10:53:18.887Z,1.61
2022-12-08T10:54:33.554Z,1.60
2022-12-08T10:55:50.755Z,1.61
2022-12-08T10:56:55.579Z,1.60
2022-12-08T10:57:58.820Z,1.59
2022-12-08T10:59:11.268Z,1.61
2022-12-08T11:01:37.716Z,1.74
2022-12-08T11:02:59.192Z,1.64
2022-12-08T11:04:06.060Z,1.63
2022-12-08T11:05:12.749Z,1.63
2022-12-08T11:06:19.390Z,1.63
2022-12-08T11:07:23.133Z,1.65
2022-12-08T11:08:28.932Z,1.65
2022-12-08T11:10:49.292Z,1.80
2022-12-08T11:11:55.879Z,1.70
2022-12-08T11:13:02.170Z,1.72
2022-12-08T11:14:07.973Z,1.74
2022-12-08T11:15:17.307Z,1.75
2022-12-08T11:16:22.480Z,1.75
2022-12-08T11:17:27.783Z,1.76
2022-12-08T11:18:34.418Z,1.76
2022-12-08T11:19:40.109Z,1.76
2022-12-08T11:20:43.304Z,1.77
2022-12-08T11:21:46.991Z,1.79
2022-12-08T11:22:55.126Z,1.78
2022-12-08T11:23:58.264Z,1.79
2022-12-08T11:26:33.765Z,1.93
2022-12-08T11:27:46.099Z,1.80
2022-12-08T11:28:49.237Z,1.81
2022-12-08T11:29:52.620Z,1.83
2022-12-08T11:30:59.496Z,1.82
2022-12-08T11:32:06.054Z,1.82
2022-12-08T11:33:27.391Z,1.82
2022-12-08T11:34:40.987Z,1.81
2022-12-08T11:35:47.177Z,1.82
2022-12-08T11:36:52.190Z,1.84
2022-12-08T11:38:13.479Z,1.86
2022-12-08T11:39:05.261Z,1.85
2022-12-08T11:40:18.538Z,1.85
2022-12-08T11:41:31.298Z,1.88
2022-12-08T11:42:37.982Z,1.87
2022-12-08T11:44:01.060Z,1.88
2022-12-08T11:45:07.982Z,1.88
2022-12-08T11:46:18.051Z,1.89
2022-12-08T11:47:27.819Z,1.89
2022-12-08T11:48:37.591Z,1.89
2022-12-08T11:49:42.412Z,1.89
2022-12-08T11:50:55.035Z,1.89
2022-12-08T11:52:05.163Z,1.89
2022-12-08T11:53:12.239Z,1.88
2022-12-08T11:54:27.983Z,1.88
2022-12-08T11:55:40.664Z,1.88
2022-12-08T11:56:59.557Z,1.88
2022-12-08T11:58:06.358Z,1.87
2022-12-08T11:59:43.441Z,1.87
2022-12-08T12:00:47.072Z,1.87
2022-12-08T12:01:50.777Z,1.87
2022-12-08T12:03:00.292Z,1.88
2022-12-08T12:07:26.366Z,1.87
2022-12-08T12:08:50.490Z,1.85
2022-12-08T12:10:17.841Z,1.83
2022-12-08T12:11:48.660Z,1.81
2022-12-08T12:13:22.707Z,1.79
2022-12-08T12:14:51.010Z,1.78
2022-12-08T12:16:18.350Z,1.76
2022-12-08T12:17:43.281Z,1.75
2022-12-08T12:19:07.597Z,1.75
2022-12-08T12:20:32.255Z,1.73
2022-12-08T12:21:41.824Z,1.74
2022-12-08T12:22:48.271Z,1.74
2022-12-08T12:23:58.073Z,1.74
2022-12-08T12:25:01.950Z,1.74
2022-12-08T12:26:08.655Z,1.75
2022-12-08T12:27:18.284Z,1.76
2022-12-08T12:28:24.799Z,1.78
2022-12-08T12:29:37.157Z,1.79
2022-12-08T12:30:56.197Z,1.78
2022-12-08T12:32:03.063Z,1.78
2022-12-08T12:33:08.077Z,1.77
2022-12-08T12:34:39.201Z,1.77
2022-12-08T12:35:43.117Z,1.76
2022-12-08T12:36:58.169Z,1.76
2022-12-08T12:38:06.774Z,1.72
2022-12-08T12:39:13.580Z,1.69
2022-12-08T12:40:23.544Z,1.68
2022-12-08T12:41:38.726Z,1.67
2022-12-08T12:42:50.986Z,1.65
2022-12-08T12:44:09.418Z,1.66
2022-12-08T12:45:16.364Z,1.67
2022-12-08T12:46:26.040Z,1.66
2022-12-08T12:47:59.393Z,1.66
2022-12-08T12:49:42.730Z,1.66
2022-12-08T12:50:48.982Z,1.66
2022-12-08T12:51:55.223Z,1.65
2022-12-08T12:53:01.044Z,1.63
2022-12-08T12:54:25.719Z,1.64
2022-12-08T12:55:47.355Z,1.65
2022-12-08T12:56:53.844Z,1.66
2022-12-08T12:57:58.415Z,1.67
2022-12-08T12:59:05.103Z,1.68
2022-12-08T13:00:12.179Z,1.69
2022-12-08T13:01:25.113Z,1.69
2022-12-08T13:02:37.611Z,1.71
2022-12-08T13:03:53.016Z,1.71
2022-12-08T13:07:42.830Z,1.71
2022-12-08T13:08:55.683Z,1.71
2022-12-08T13:10:02.662Z,1.69
2022-12-08T13:11:09.165Z,1.67
2022-12-08T13:12:15.889Z,1.68
2022-12-08T13:13:19.037Z,1.69
2022-12-08T13:15:48.219Z,1.81
2022-12-08T13:16:55.133Z,1.72
2022-12-08T13:17:58.368Z,1.72
2022-12-08T13:19:07.936Z,1.72
2022-12-08T13:21:34.899Z,1.82
2022-12-08T13:22:56.116Z,1.72
2022-12-08T13:24:19.272Z,1.72
2022-12-08T13:25:44.130Z,1.72
2022-12-08T13:26:49.861Z,1.70
2022-12-08T13:27:54.349Z,1.71
2022-12-08T13:29:03.903Z,1.70
2022-12-08T13:31:56.640Z,1.81
2022-12-08T13:33:18.383Z,1.68
2022-12-08T13:34:37.298Z,1.67
2022-12-08T13:35:43.995Z,1.66
2022-12-08T13:37:11.922Z,1.67
2022-12-08T13:38:18.850Z,1.67
2022-12-08T13:40:45.765Z,1.77
2022-12-08T13:43:18.396Z,1.81
2022-12-08T13:48:51.201Z,1.73
2022-12-08T13:51:08.169Z,1.72
2022-12-08T13:57:10.647Z,1.72
2022-12-08T13:58:01.478Z,1.73
2022-12-08T13:59:29.891Z,1.75
2022-12-08T14:00:33.155Z,1.77
2022-12-08T14:01:43.117Z,1.79
2022-12-08T14:02:49.175Z,1.80
